Time;durP1;ratioP1;P1;durP2;ratioP2;P2;SDS_P1;SDS_P2;PMS_P1;PMS_P2;Temp;Humidity;BMP_temperature;BMP_pressure;BME280_temperature;BME280_humidity;BME280_pressure;Samples;Min_cycle;Max_cycle;Signal;HPM_P1;HPM_P2
2023/03/02 00:00:15;;;;;;;80.50;45.60;;;;;;;-2.22;80.97;101457.71;108857;1273;37119;-74
2023/03/02 00:03:09;;;;;;;82.70;44.90;;;;;;;-2.25;81.13;101455.39;108840;1254;37317;-74
2023/03/02 00:05:46;;;;;;;83.80;45.00;;;;;;;-2.27;81.00;101454.48;108872;1257;37138;-76
2023/03/02 00:08:20;;;;;;;79.20;43.20;;;;;;;-2.31;80.72;101451.45;108858;1257;37073;-75
2023/03/02 00:10:54;;;;;;;82.80;42.20;;;;;;;-2.34;80.80;101445.88;108838;1256;37418;-75
2023/03/02 00:13:32;;;;;;;74.20;43.30;;;;;;;-2.35;80.94;101449.78;108847;1273;37249;-75
2023/03/02 00:16:07;;;;;;;82.40;44.80;;;;;;;-2.35;80.85;101454.08;108871;1252;37920;-75
2023/03/02 00:18:42;;;;;;;80.00;43.80;;;;;;;-2.35;81.16;101451.51;108838;1261;37100;-76
2023/03/02 00:21:16;;;;;;;86.50;47.40;;;;;;;-2.35;81.28;101453.70;108827;1267;37067;-74
2023/03/02 00:23:50;;;;;;;84.30;46.10;;;;;;;-2.38;81.25;101453.48;108837;1262;36556;-74
2023/03/02 00:26:24;;;;;;;83.50;43.50;;;;;;;-2.41;81.03;101454.23;108859;1256;37071;-75
2023/03/02 00:28:59;;;;;;;76.90;44.30;;;;;;;-2.43;81.08;101446.64;108883;1273;37246;-75
2023/03/02 00:31:33;;;;;;;81.50;44.20;;;;;;;-2.44;81.04;101451.05;108851;1263;36670;-75
2023/03/02 00:34:08;;;;;;;82.80;45.20;;;;;;;-2.42;81.18;101451.79;108899;1274;36964;-76
2023/03/02 00:36:42;;;;;;;79.00;44.30;;;;;;;-2.42;81.12;101446.32;108801;1256;36683;-76
2023/03/02 00:39:19;;;;;;;84.40;47.30;;;;;;;-2.44;80.96;101441.83;108839;1257;36945;-75
2023/03/02 00:41:53;;;;;;;80.80;45.50;;;;;;;-2.48;81.01;101445.80;108807;1274;37043;-75
2023/03/02 00:44:27;;;;;;;76.80;44.00;;;;;;;-2.50;81.16;101448.78;108863;1255;38299;-76
2023/03/02 00:47:01;;;;;;;79.10;43.40;;;;;;;-2.52;81.28;101445.15;108774;1258;37592;-74
2023/03/02 00:49:36;;;;;;;72.60;41.80;;;;;;;-2.51;81.18;101446.02;108836;1256;37259;-76
2023/03/02 00:52:10;;;;;;;82.60;43.60;;;;;;;-2.51;81.28;101447.04;108851;1268;36998;-74
2023/03/02 00:54:45;;;;;;;79.30;45.20;;;;;;;-2.51;81.53;101453.89;108835;1265;37093;-75
2023/03/02 00:57:19;;;;;;;79.20;45.20;;;;;;;-2.54;81.64;101450.90;108539;1273;413799;-75
2023/03/02 00:59:53;;;;;;;86.00;46.20;;;;;;;-2.58;81.47;101450.25;108827;1251;36986;-72
2023/03/02 01:02:27;;;;;;;88.20;47.00;;;;;;;-2.59;81.62;101448.17;108841;1273;37127;-74
2023/03/02 01:05:02;;;;;;;81.40;44.30;;;;;;;-2.58;81.67;101447.15;108888;1263;37105;-76
2023/03/02 01:07:36;;;;;;;79.30;44.60;;;;;;;-2.57;81.88;101448.20;108832;1263;36929;-75
2023/03/02 01:10:13;;;;;;;78.40;45.40;;;;;;;-2.57;81.82;101449.41;108871;1251;37541;-74
2023/03/02 01:12:47;;;;;;;81.50;45.40;;;;;;;-2.58;81.76;101447.85;108859;1263;37165;-74
2023/03/02 01:15:21;;;;;;;82.90;46.40;;;;;;;-2.62;81.51;101446.70;108884;1261;37360;-76
2023/03/02 01:17:55;;;;;;;77.90;43.50;;;;;;;-2.70;81.28;101437.39;108845;1273;37145;-76
2023/03/02 01:20:30;;;;;;;81.20;43.70;;;;;;;-2.76;81.11;101435.98;108882;1251;37089;-74
2023/03/02 01:23:04;;;;;;;78.70;42.90;;;;;;;-2.81;81.31;101435.98;108889;1263;37023;-76
2023/03/02 01:25:38;;;;;;;75.50;42.80;;;;;;;-2.83;81.39;101430.11;108807;1264;37133;-74
2023/03/02 01:28:13;;;;;;;78.40;42.80;;;;;;;-2.84;81.42;101430.08;108844;1251;36972;-76
2023/03/02 01:30:49;;;;;;;78.30;45.80;;;;;;;-2.84;81.47;101432.46;108168;1254;922080;-76
2023/03/02 01:33:23;;;;;;;80.80;45.30;;;;;;;-2.85;81.49;101433.46;108860;1273;37594;-76
2023/03/02 01:36:00;;;;;;;75.90;44.10;;;;;;;-2.90;81.37;101427.16;108857;1259;36820;-76
2023/03/02 01:38:34;;;;;;;77.80;43.60;;;;;;;-2.93;81.41;101422.27;108868;1250;37095;-76
2023/03/02 01:41:09;;;;;;;73.70;41.10;;;;;;;-2.95;81.44;101419.29;108832;1265;36965;-73
2023/03/02 01:43:44;;;;;;;77.90;44.10;;;;;;;-2.91;81.56;101420.79;108853;1251;36100;-75
2023/03/02 01:46:19;;;;;;;80.40;43.50;;;;;;;-2.87;81.74;101423.69;108835;1254;37297;-75
2023/03/02 01:48:54;;;;;;;77.90;45.00;;;;;;;-2.79;82.24;101429.73;108836;1256;37061;-76
2023/03/02 01:51:30;;;;;;;79.30;43.40;;;;;;;-2.71;82.48;101428.83;108832;1273;36486;-76
2023/03/02 01:54:08;;;;;;;81.50;42.60;;;;;;;-2.60;83.34;101420.13;108839;1273;37170;-77
2023/03/02 01:56:43;;;;;;;75.30;39.20;;;;;;;-2.46;83.88;101413.22;108827;1262;37136;-77
2023/03/02 01:59:19;;;;;;;67.00;36.90;;;;;;;-2.30;84.41;101414.21;108853;1273;38263;-78
2023/03/02 02:01:53;;;;;;;68.30;36.30;;;;;;;-2.13;85.08;101415.09;108884;1263;37795;-78
2023/03/02 02:04:28;;;;;;;61.70;34.40;;;;;;;-1.93;86.82;101409.86;108737;1266;36417;-76
2023/03/02 02:07:04;;;;;;;63.80;35.20;;;;;;;-1.74;86.38;101412.31;108829;1273;37375;-77
2023/03/02 02:09:40;;;;;;;67.80;37.90;;;;;;;-1.59;86.49;101416.52;108841;1261;37034;-76
2023/03/02 02:12:19;;;;;;;69.20;38.50;;;;;;;-1.43;86.64;101419.85;108834;1263;37323;-74
2023/03/02 02:14:59;;;;;;;70.80;38.20;;;;;;;-1.28;86.47;101418.55;108842;1251;37161;-77
2023/03/02 02:17:34;;;;;;;60.20;33.80;;;;;;;-1.15;86.60;101419.92;108804;1263;36918;-77
2023/03/02 02:20:18;;;;;;;60.20;32.50;;;;;;;-1.03;86.69;101420.24;108843;1273;36013;-75
2023/03/02 02:22:59;;;;;;;61.10;33.00;;;;;;;-0.91;86.59;101417.47;108830;1255;37587;-75
2023/03/02 02:25:45;;;;;;;56.70;31.60;;;;;;;-0.78;86.34;101413.16;108878;1254;37158;-75
2023/03/02 02:28:22;;;;;;;62.10;33.90;;;;;;;-0.68;86.70;101406.03;108842;1255;36812;-75
2023/03/02 02:31:04;;;;;;;59.60;31.50;;;;;;;-0.63;86.37;101405.66;108881;1257;37014;-76
2023/03/02 02:33:38;;;;;;;57.20;29.40;;;;;;;-0.55;86.26;101403.27;108845;1265;36299;-75
2023/03/02 02:36:16;;;;;;;52.80;29.70;;;;;;;-0.46;86.28;101399.55;108819;1257;37111;-75
2023/03/02 02:38:53;;;;;;;53.20;30.00;;;;;;;-0.38;86.11;101402.13;108828;1254;36244;-76
2023/03/02 02:41:29;;;;;;;53.10;28.70;;;;;;;-0.29;85.89;101397.20;108859;1262;38370;-76
2023/03/02 02:44:03;;;;;;;54.60;30.10;;;;;;;-0.23;85.91;101394.25;108856;1251;38560;-76
2023/03/02 02:46:37;;;;;;;56.00;29.80;;;;;;;-0.18;85.97;101391.11;108846;1254;38326;-76
2023/03/02 02:49:17;;;;;;;57.30;29.80;;;;;;;-0.14;85.61;101387.60;108842;1263;36112;-75
2023/03/02 02:51:52;;;;;;;50.80;27.60;;;;;;;-0.13;85.61;101382.98;108836;1267;37088;-76
2023/03/02 02:54:26;;;;;;;49.30;26.70;;;;;;;-0.09;85.59;101381.02;108852;1273;36470;-75
2023/03/02 02:57:01;;;;;;;50.20;27.80;;;;;;;-0.02;85.48;101378.23;108841;1273;37012;-75
2023/03/02 02:59:38;;;;;;;56.30;29.90;;;;;;;0.08;85.42;101383.40;108847;1264;37141;-76
2023/03/02 03:02:16;;;;;;;50.50;27.60;;;;;;;0.11;85.64;101378.52;108844;1254;36183;-76
2023/03/02 03:04:50;;;;;;;48.50;26.10;;;;;;;0.12;85.64;101377.85;108857;1261;36456;-74
2023/03/02 03:07:25;;;;;;;44.60;25.10;;;;;;;0.16;85.73;101374.86;108845;1254;37016;-76
2023/03/02 03:10:01;;;;;;;52.90;28.00;;;;;;;0.21;85.67;101372.36;108795;1251;39205;-76
2023/03/02 03:12:35;;;;;;;42.70;25.10;;;;;;;0.28;85.63;101370.80;108797;1254;173219;-76
2023/03/02 03:15:11;;;;;;;53.20;28.10;;;;;;;0.34;85.46;101372.44;108810;1254;38910;-76
2023/03/02 03:17:53;;;;;;;47.10;26.30;;;;;;;0.38;85.23;101369.27;108852;1265;37588;-74
2023/03/02 03:20:29;;;;;;;52.00;28.90;;;;;;;0.39;84.91;101370.31;108730;1273;175429;-75
2023/03/02 03:23:03;;;;;;;46.60;27.10;;;;;;;0.39;84.90;101369.80;108858;1254;37220;-74
2023/03/02 03:25:37;;;;;;;41.40;24.90;;;;;;;0.41;84.87;101370.71;108847;1254;38306;-76
2023/03/02 03:28:11;;;;;;;42.90;25.50;;;;;;;0.43;84.78;101368.50;108807;1257;37213;-76
2023/03/02 03:30:45;;;;;;;43.40;25.60;;;;;;;0.48;84.99;101363.45;108813;1254;37122;-77
2023/03/02 03:33:20;;;;;;;48.40;26.80;;;;;;;0.51;84.91;101357.85;108843;1251;37175;-77
2023/03/02 03:35:54;;;;;;;45.10;26.60;;;;;;;0.54;84.93;101361.33;108855;1262;37217;-76
2023/03/02 03:38:30;;;;;;;47.80;25.60;;;;;;;0.58;84.95;101362.25;108825;1254;36138;-75
2023/03/02 03:41:04;;;;;;;42.60;24.50;;;;;;;0.58;84.61;101368.10;108697;1255;188133;-75
2023/03/02 03:43:39;;;;;;;40.40;23.80;;;;;;;0.58;84.67;101367.23;108836;1263;37199;-72
2023/03/02 03:46:13;;;;;;;42.10;24.50;;;;;;;0.56;84.54;101364.29;108840;1251;37439;-73
2023/03/02 03:48:47;;;;;;;40.60;23.90;;;;;;;0.59;84.43;101365.39;108872;1254;36616;-76
2023/03/02 03:51:21;;;;;;;41.60;25.40;;;;;;;0.61;84.52;101369.20;108860;1257;36813;-77
2023/03/02 03:54:00;;;;;;;40.70;25.30;;;;;;;0.67;84.55;101370.34;108849;1263;37064;-76
2023/03/02 03:56:35;;;;;;;45.80;26.60;;;;;;;0.67;84.42;101372.91;108847;1252;37045;-77
2023/03/02 03:59:12;;;;;;;46.10;26.60;;;;;;;0.65;84.39;101369.95;108825;1254;37055;-77
2023/03/02 04:01:48;;;;;;;42.20;24.60;;;;;;;0.62;84.31;101366.63;108807;1273;36986;-74
2023/03/02 04:04:24;;;;;;;43.30;24.30;;;;;;;0.60;84.41;101363.18;108812;1254;37281;-75
2023/03/02 04:06:58;;;;;;;42.00;25.40;;;;;;;0.62;84.53;101364.40;108809;1251;36413;-75
2023/03/02 04:09:36;;;;;;;40.40;25.10;;;;;;;0.64;84.54;101368.20;108828;1262;37107;-74
2023/03/02 04:12:10;;;;;;;44.00;26.60;;;;;;;0.67;84.75;101368.27;108860;1263;36993;-75
2023/03/02 04:14:44;;;;;;;46.70;26.80;;;;;;;0.69;84.59;101364.02;108836;1255;37679;-75
2023/03/02 04:17:18;;;;;;;43.20;25.10;;;;;;;0.67;84.68;101360.73;108816;1258;37546;-77
2023/03/02 04:19:53;;;;;;;39.00;23.00;;;;;;;0.68;84.55;101362.62;108846;1273;37222;-75
2023/03/02 04:22:29;;;;;;;40.50;23.40;;;;;;;0.70;84.78;101359.23;108822;1273;37226;-76
2023/03/02 04:25:04;;;;;;;40.70;25.70;;;;;;;0.70;84.53;101365.60;108857;1256;37871;-78
2023/03/02 04:27:38;;;;;;;43.80;25.50;;;;;;;0.75;84.34;101361.05;108852;1257;36669;-77
2023/03/02 04:30:15;;;;;;;43.20;25.90;;;;;;;0.75;84.49;101364.66;108839;1250;37377;-76
2023/03/02 04:32:50;;;;;;;46.50;26.60;;;;;;;0.74;84.61;101363.95;108834;1254;37492;-77
2023/03/02 04:35:25;;;;;;;46.00;26.50;;;;;;;0.74;84.40;101364.80;108736;1257;172777;-72
2023/03/02 04:37:59;;;;;;;43.30;26.50;;;;;;;0.75;84.28;101366.35;108832;1254;37221;-74
2023/03/02 04:40:33;;;;;;;47.20;27.50;;;;;;;0.76;84.34;101360.89;108849;1254;38246;-77
2023/03/02 04:43:08;;;;;;;46.80;28.90;;;;;;;0.77;84.39;101362.11;108840;1254;37080;-76
2023/03/02 04:45:42;;;;;;;47.30;29.80;;;;;;;0.78;84.28;101356.11;108887;1254;37082;-75
2023/03/02 04:48:16;;;;;;;51.50;29.70;;;;;;;0.79;84.38;101355.95;108805;1254;37162;-75
2023/03/02 04:50:51;;;;;;;50.70;29.40;;;;;;;0.78;84.30;101354.56;108847;1273;37929;-76
2023/03/02 04:53:26;;;;;;;47.70;27.80;;;;;;;0.80;84.26;101358.91;108805;1273;38017;-75
2023/03/02 04:56:04;;;;;;;43.00;26.90;;;;;;;0.81;84.25;101357.88;108815;1261;37509;-76
2023/03/02 04:58:38;;;;;;;43.00;27.10;;;;;;;0.80;84.40;101361.64;108878;1254;37027;-74
2023/03/02 05:01:14;;;;;;;46.30;27.70;;;;;;;0.77;84.43;101361.59;108868;1255;37227;-73
2023/03/02 05:03:48;;;;;;;47.20;28.10;;;;;;;0.81;84.69;101365.78;108898;1254;37509;-75
2023/03/02 05:06:23;;;;;;;49.20;29.40;;;;;;;0.86;84.54;101368.62;108840;1254;37124;-74
2023/03/02 05:08:59;;;;;;;58.10;29.60;;;;;;;0.88;84.54;101372.09;108830;1251;37162;-74
2023/03/02 05:11:33;;;;;;;46.40;28.40;;;;;;;0.88;84.66;101371.23;108831;1255;37244;-75
2023/03/02 05:14:08;;;;;;;44.80;27.80;;;;;;;0.88;84.65;101370.20;108828;1255;37437;-78
2023/03/02 05:16:43;;;;;;;45.70;27.80;;;;;;;0.89;84.68;101374.35;108909;1259;36688;-77
2023/03/02 05:19:17;;;;;;;46.80;29.40;;;;;;;0.91;84.56;101379.18;108825;1257;36210;-73
2023/03/02 05:21:52;;;;;;;48.20;30.20;;;;;;;0.93;84.48;101382.14;108835;1254;38283;-74
2023/03/02 05:24:26;;;;;;;50.30;30.60;;;;;;;0.96;84.54;101382.02;108884;1254;37838;-76
2023/03/02 05:27:03;;;;;;;51.10;29.90;;;;;;;0.97;84.42;101385.65;108837;1250;36995;-77
2023/03/02 05:29:37;;;;;;;51.00;28.70;;;;;;;0.96;84.11;101385.46;108829;1250;37037;-76
2023/03/02 05:32:13;;;;;;;49.80;28.80;;;;;;;0.93;84.11;101383.17;108786;1251;37050;-75
2023/03/02 05:34:47;;;;;;;50.40;30.40;;;;;;;0.92;84.18;101389.50;108849;1250;37117;-75
2023/03/02 05:37:21;;;;;;;49.20;29.80;;;;;;;0.92;84.10;101386.94;108850;1273;36971;-75
2023/03/02 05:39:55;;;;;;;53.50;33.10;;;;;;;0.91;83.97;101388.98;108849;1254;37071;-75
2023/03/02 05:42:29;;;;;;;54.60;33.20;;;;;;;0.88;84.00;101388.91;108804;1257;36957;-75
2023/03/02 05:45:03;;;;;;;56.70;33.40;;;;;;;0.87;84.04;101392.84;108803;1250;36098;-75
2023/03/02 05:47:38;;;;;;;55.00;32.40;;;;;;;0.86;83.99;101390.95;108787;1254;37056;-74
2023/03/02 05:50:13;;;;;;;56.40;32.60;;;;;;;0.86;84.18;101391.98;108848;1251;36639;-74
2023/03/02 05:52:48;;;;;;;58.30;33.90;;;;;;;0.87;84.03;101397.14;108875;1250;36974;-75
2023/03/02 05:55:22;;;;;;;59.60;34.50;;;;;;;0.87;84.08;101397.33;108887;1254;37140;-75
2023/03/02 05:57:56;;;;;;;61.80;36.20;;;;;;;0.89;84.27;101400.98;108864;1254;36007;-75
2023/03/02 06:00:31;;;;;;;65.40;37.50;;;;;;;0.90;84.17;101404.58;108836;1254;37192;-73
2023/03/02 06:03:05;;;;;;;69.60;37.10;;;;;;;0.86;84.06;101407.10;108850;1250;37081;-76
2023/03/02 06:05:41;;;;;;;60.60;34.60;;;;;;;0.83;83.97;101407.38;108868;1250;36993;-72
2023/03/02 06:08:18;;;;;;;62.90;35.80;;;;;;;0.80;83.96;101405.27;108824;1258;36899;-74
2023/03/02 06:10:54;;;;;;;63.50;36.90;;;;;;;0.83;84.25;101406.88;108862;1260;36337;-74
2023/03/02 06:13:30;;;;;;;66.10;37.50;;;;;;;0.86;84.35;101414.83;108837;1254;37374;-76
2023/03/02 06:16:04;;;;;;;69.00;39.00;;;;;;;0.88;84.33;101415.73;108863;1255;37369;-75
2023/03/02 06:18:38;;;;;;;68.70;40.40;;;;;;;0.87;84.22;101417.27;108873;1254;36809;-76
2023/03/02 06:21:12;;;;;;;69.80;37.70;;;;;;;0.83;84.10;101420.95;108792;1254;36684;-76
2023/03/02 06:23:46;;;;;;;62.00;36.20;;;;;;;0.81;84.21;101430.70;108880;1254;37301;-76
2023/03/02 06:26:20;;;;;;;60.50;37.20;;;;;;;0.80;84.25;101432.92;108858;1254;36297;-75
2023/03/02 06:28:54;;;;;;;64.60;37.60;;;;;;;0.81;84.30;101439.98;108868;1273;37108;-75
2023/03/02 06:31:29;;;;;;;68.30;38.20;;;;;;;0.81;84.48;101440.50;108845;1254;36998;-75
2023/03/02 06:34:04;;;;;;;68.40;41.30;;;;;;;0.81;84.51;101445.30;108870;1254;37107;-74
2023/03/02 06:36:38;;;;;;;72.90;41.90;;;;;;;0.80;84.42;101442.02;108841;1273;36265;-74
2023/03/02 06:39:15;;;;;;;69.90;38.20;;;;;;;0.80;84.55;101445.48;108856;1264;37124;-76
2023/03/02 06:41:50;;;;;;;69.10;39.30;;;;;;;0.80;84.45;101448.71;108850;1273;36487;-74
2023/03/02 06:44:23;;;;;;;61.00;37.30;;;;;;;0.81;84.73;101443.93;108799;1270;36901;-76
2023/03/02 06:46:57;;;;;;;68.60;37.30;;;;;;;0.85;84.68;101446.23;108837;1250;38645;-76
2023/03/02 06:49:31;;;;;;;69.30;40.00;;;;;;;0.88;84.65;101443.89;108943;1273;37291;-72
2023/03/02 06:52:06;;;;;;;71.50;41.80;;;;;;;0.89;84.68;101440.84;108885;1272;37138;-72
2023/03/02 06:54:40;;;;;;;73.70;42.40;;;;;;;0.90;84.85;101442.21;108853;1250;38478;-73
2023/03/02 06:57:15;;;;;;;66.90;39.60;;;;;;;0.90;84.79;101442.90;108869;1254;36024;-74
2023/03/02 06:59:49;;;;;;;62.40;38.60;;;;;;;0.89;84.57;101442.72;108888;1254;37168;-74
2023/03/02 07:02:23;;;;;;;67.10;40.00;;;;;;;0.90;84.72;101446.34;108839;1273;38634;-76
2023/03/02 07:04:58;;;;;;;66.50;39.00;;;;;;;0.95;84.91;101441.10;108893;1254;36023;-76
2023/03/02 07:07:35;;;;;;;69.20;38.80;;;;;;;1.00;84.97;101438.45;108847;1262;36993;-76
2023/03/02 07:10:13;;;;;;;65.50;38.70;;;;;;;1.06;84.99;101443.02;108855;1273;36719;-77
2023/03/02 07:12:47;;;;;;;70.30;40.80;;;;;;;1.08;84.76;101443.59;108907;1251;37388;-77
2023/03/02 07:15:22;;;;;;;60.10;36.50;;;;;;;1.06;84.72;101442.83;108876;1255;37909;-77
2023/03/02 07:17:56;;;;;;;64.50;36.40;;;;;;;1.04;84.52;101447.28;108858;1273;36001;-77
2023/03/02 07:20:30;;;;;;;65.20;36.40;;;;;;;1.03;84.53;101436.95;108863;1266;36693;-77
2023/03/02 07:23:05;;;;;;;62.00;36.60;;;;;;;1.04;84.82;101435.25;108847;1253;37833;-75
2023/03/02 07:25:39;;;;;;;63.60;37.50;;;;;;;1.06;85.04;101436.66;108884;1251;37237;-77
2023/03/02 07:28:14;;;;;;;66.90;39.70;;;;;;;1.09;85.06;101434.32;108871;1254;38445;-75
2023/03/02 07:30:48;;;;;;;67.50;38.80;;;;;;;1.12;84.96;101438.14;108849;1250;38633;-76
2023/03/02 07:33:22;;;;;;;66.20;38.00;;;;;;;1.12;84.88;101436.94;108868;1254;37454;-74
2023/03/02 07:35:57;;;;;;;64.50;36.40;;;;;;;1.11;84.97;101438.98;108897;1250;36973;-77
2023/03/02 07:38:32;;;;;;;67.00;38.10;;;;;;;1.14;84.98;101435.08;108849;1254;36962;-76
2023/03/02 07:41:10;;;;;;;65.30;38.00;;;;;;;1.19;85.20;101429.34;108833;1273;37962;-74
2023/03/02 07:43:44;;;;;;;67.10;39.70;;;;;;;1.22;85.07;101428.36;108875;1255;37080;-75
2023/03/02 07:46:18;;;;;;;66.40;40.10;;;;;;;1.23;84.95;101432.33;108871;1250;38161;-73
2023/03/02 07:48:52;;;;;;;66.80;38.80;;;;;;;1.24;84.94;101432.00;108901;1273;37646;-73
2023/03/02 07:51:27;;;;;;;68.60;38.60;;;;;;;1.24;85.13;101432.17;108888;1250;37045;-74
2023/03/02 07:54:01;;;;;;;64.30;36.20;;;;;;;1.25;85.11;101430.30;108939;1254;38592;-75
2023/03/02 07:56:36;;;;;;;56.50;34.50;;;;;;;1.29;85.06;101423.66;108859;1254;36772;-74
2023/03/02 07:59:10;;;;;;;59.60;37.10;;;;;;;1.32;85.19;101420.77;108871;1255;39140;-73
2023/03/02 08:01:44;;;;;;;60.90;36.40;;;;;;;1.39;85.25;101419.52;108846;1254;37159;-74
2023/03/02 08:04:18;;;;;;;66.40;38.20;;;;;;;1.46;85.53;101414.81;108829;1251;36423;-76
2023/03/02 08:06:53;;;;;;;64.20;37.10;;;;;;;1.49;85.38;101413.52;108826;1257;36502;-76
2023/03/02 08:09:27;;;;;;;63.80;36.30;;;;;;;1.51;85.35;101412.84;108800;1261;38479;-75
2023/03/02 08:12:01;;;;;;;62.30;35.70;;;;;;;1.54;85.25;101414.62;108844;1254;36203;-74
2023/03/02 08:14:36;;;;;;;61.10;35.60;;;;;;;1.57;85.11;101413.60;108860;1273;37560;-75
2023/03/02 08:17:10;;;;;;;62.50;37.00;;;;;;;1.60;85.04;101414.52;108835;1250;37045;-73
2023/03/02 08:19:44;;;;;;;61.30;36.90;;;;;;;1.67;85.45;101412.90;108835;1273;37255;-74
2023/03/02 08:22:18;;;;;;;66.50;37.80;;;;;;;1.74;85.55;101404.08;108698;1262;172716;-73
2023/03/02 08:24:53;;;;;;;64.30;38.40;;;;;;;1.78;85.44;101403.62;108859;1259;37000;-74
2023/03/02 08:27:27;;;;;;;67.00;37.60;;;;;;;1.78;85.38;101402.42;108837;1250;36258;-74
2023/03/02 08:30:02;;;;;;;65.70;36.50;;;;;;;1.79;85.49;101405.19;108852;1254;37646;-76
2023/03/02 08:32:37;;;;;;;61.70;34.90;;;;;;;1.83;85.53;101399.91;108834;1255;37137;-76
2023/03/02 08:35:15;;;;;;;61.90;35.90;;;;;;;1.90;85.49;101400.34;108865;1262;38239;-76
2023/03/02 08:37:49;;;;;;;57.90;35.30;;;;;;;1.96;85.51;101399.55;108835;1270;37083;-74
2023/03/02 08:40:24;;;;;;;70.00;40.10;;;;;;;1.98;85.37;101398.39;108843;1254;37157;-76
2023/03/02 08:42:58;;;;;;;77.20;43.50;;;;;;;1.99;85.37;101398.92;108839;1254;36968;-77
2023/03/02 08:45:32;;;;;;;74.90;40.80;;;;;;;2.06;85.65;101400.57;108861;1255;37355;-74
2023/03/02 08:48:07;;;;;;;72.60;41.30;;;;;;;2.11;85.52;101401.13;108814;1273;37043;-75
2023/03/02 08:50:41;;;;;;;63.60;38.00;;;;;;;2.15;85.57;101401.19;108827;1250;37000;-76
2023/03/02 08:53:16;;;;;;;66.70;38.90;;;;;;;2.23;85.33;101400.61;108802;1256;37516;-74
2023/03/02 08:55:50;;;;;;;60.20;35.60;;;;;;;2.25;85.32;101406.48;108855;1256;36650;-75
2023/03/02 08:58:27;;;;;;;57.00;35.90;;;;;;;2.28;85.29;101406.36;108559;1254;413586;-74
2023/03/02 09:01:01;;;;;;;61.50;37.20;;;;;;;2.29;85.10;101404.98;108871;1273;37003;-75
2023/03/02 09:03:35;;;;;;;62.60;37.20;;;;;;;2.32;85.09;101401.60;108819;1255;37098;-75
2023/03/02 09:06:09;;;;;;;56.60;33.90;;;;;;;2.37;84.99;101398.38;108840;1250;38601;-73
2023/03/02 09:08:43;;;;;;;52.80;32.40;;;;;;;2.45;84.96;101396.22;108842;1250;37985;-75
2023/03/02 09:11:17;;;;;;;47.60;30.50;;;;;;;2.49;84.70;101398.68;108823;1273;37163;-75
2023/03/02 09:13:51;;;;;;;44.10;28.10;;;;;;;2.53;84.61;101397.35;108855;1273;36947;-75
2023/03/02 09:16:25;;;;;;;50.90;30.70;;;;;;;2.55;84.57;101400.46;108818;1270;36002;-75
2023/03/02 09:19:00;;;;;;;45.60;27.60;;;;;;;2.56;84.74;101399.80;108883;1254;37044;-74
2023/03/02 09:21:34;;;;;;;46.50;26.50;;;;;;;2.59;84.58;101402.59;108835;1254;37107;-73
2023/03/02 09:24:09;;;;;;;44.60;27.50;;;;;;;2.64;84.59;101401.09;108857;1250;36994;-76
2023/03/02 09:26:43;;;;;;;41.50;26.10;;;;;;;2.68;84.40;101397.52;108806;1251;37562;-75
2023/03/02 09:29:17;;;;;;;45.20;26.40;;;;;;;2.71;84.41;101400.14;108852;1273;36952;-75
2023/03/02 09:31:52;;;;;;;41.00;26.50;;;;;;;2.75;84.40;101398.97;108837;1250;38403;-76
2023/03/02 09:34:28;;;;;;;43.40;24.80;;;;;;;2.77;84.47;101398.48;108836;1256;38327;-76
2023/03/02 09:37:02;;;;;;;39.70;22.60;;;;;;;2.78;84.21;101398.83;108825;1260;38581;-77
2023/03/02 09:39:37;;;;;;;37.40;22.50;;;;;;;2.80;84.14;101395.92;108884;1262;37271;-76
2023/03/02 09:42:24;;;;;;;36.20;21.20;;;;;;;2.87;84.25;101390.83;108870;1254;37329;-77
2023/03/02 09:45:25;;;;;;;36.50;20.70;;;;;;;2.95;83.83;101387.62;108865;1256;39794;-76
2023/03/02 09:48:09;;;;;;;28.50;18.00;;;;;;;3.03;83.89;101380.28;108924;1267;36305;-77
2023/03/02 09:50:55;;;;;;;31.80;19.10;;;;;;;3.06;83.29;101381.17;108905;1255;36958;-75
2023/03/02 09:53:41;;;;;;;24.00;15.60;;;;;;;3.04;83.32;101378.91;108728;1251;175080;-75
2023/03/02 09:56:18;;;;;;;25.20;17.50;;;;;;;3.11;83.21;101374.50;108843;1270;37647;-75
2023/03/02 09:58:59;;;;;;;27.40;18.60;;;;;;;3.21;83.31;101371.83;108890;1254;37058;-77
2023/03/02 10:01:43;;;;;;;27.70;18.80;;;;;;;3.31;83.44;101367.77;108851;1251;36259;-76
2023/03/02 10:04:26;;;;;;;28.20;18.50;;;;;;;3.42;83.40;101363.18;108933;1254;38329;-75
2023/03/02 10:07:10;;;;;;;52.60;32.00;;;;;;;3.53;83.61;101364.81;108884;1273;38646;-76
2023/03/02 10:09:45;;;;;;;24.50;15.80;;;;;;;3.63;83.43;101363.84;108900;1250;37968;-76
2023/03/02 10:12:51;;;;;;;20.90;13.70;;;;;;;3.77;83.54;101368.08;108839;1273;37284;-76
2023/03/02 10:15:29;;;;;;;18.90;12.40;;;;;;;3.92;82.83;101366.27;108851;1273;37121;-75
2023/03/02 10:18:13;;;;;;;18.80;11.60;;;;;;;3.99;81.56;101364.91;108826;1273;36948;-75
2023/03/02 10:20:51;;;;;;;15.20;10.60;;;;;;;3.91;80.67;101365.73;108867;1254;36576;-75
2023/03/02 10:23:44;;;;;;;15.30;11.40;;;;;;;3.84;79.85;101363.45;108849;1250;36980;-76
2023/03/02 10:26:29;;;;;;;14.90;11.20;;;;;;;3.77;80.27;101360.14;108854;1256;36901;-76
2023/03/02 10:29:16;;;;;;;18.10;11.00;;;;;;;3.76;80.09;101360.64;108848;1250;37143;-77
2023/03/02 10:31:52;;;;;;;18.80;12.70;;;;;;;3.68;79.79;101357.67;108886;1273;37226;-76
2023/03/02 10:34:29;;;;;;;18.40;12.00;;;;;;;3.63;79.92;101359.36;108864;1258;37142;-77
2023/03/02 10:37:05;;;;;;;17.50;12.00;;;;;;;3.61;80.19;101360.05;108869;1273;37069;-75
2023/03/02 10:39:39;;;;;;;15.50;11.00;;;;;;;3.63;80.25;101358.32;108892;1254;38909;-77
2023/03/02 10:42:18;;;;;;;12.60;9.60;;;;;;;3.65;80.20;101356.10;108838;1250;36973;-75
2023/03/02 10:44:55;;;;;;;11.80;8.80;;;;;;;3.68;80.01;101354.04;108904;1250;37088;-76
2023/03/02 10:47:30;;;;;;;13.60;10.70;;;;;;;3.73;79.95;101348.19;108829;1250;37062;-77
2023/03/02 10:50:05;;;;;;;15.10;10.80;;;;;;;3.77;79.91;101347.02;108863;1262;38242;-76
2023/03/02 10:52:48;;;;;;;17.60;10.80;;;;;;;3.84;79.71;101344.47;108823;1250;37073;-76
2023/03/02 10:55:22;;;;;;;18.70;12.80;;;;;;;3.93;79.67;101342.09;108887;1264;36168;-75
2023/03/02 10:58:07;;;;;;;20.30;14.30;;;;;;;4.03;79.72;101334.54;108841;1254;37122;-76
2023/03/02 11:00:41;;;;;;;19.80;13.70;;;;;;;4.15;78.88;101332.17;108927;1254;36024;-74
2023/03/02 11:03:24;;;;;;;19.60;12.60;;;;;;;4.22;79.09;101331.84;108834;1273;37884;-74
2023/03/02 11:05:59;;;;;;;17.00;12.00;;;;;;;4.27;78.27;101332.55;108745;1255;36975;-76
2023/03/02 11:08:33;;;;;;;20.60;13.50;;;;;;;4.29;77.19;101331.87;108769;1256;37255;-76
2023/03/02 11:11:24;;;;;;;17.10;11.70;;;;;;;4.24;76.86;101332.73;108759;1275;36943;-76
2023/03/02 11:14:09;;;;;;;14.10;10.40;;;;;;;4.16;76.47;101333.20;108793;1256;36776;-75
2023/03/02 11:16:43;;;;;;;14.40;10.80;;;;;;;4.10;76.46;101329.73;108686;1257;37099;-76
2023/03/02 11:19:20;;;;;;;15.20;11.30;;;;;;;4.09;76.16;101329.04;108781;1255;37461;-76
2023/03/02 11:21:58;;;;;;;17.30;11.60;;;;;;;4.05;76.37;101324.53;108781;1259;37902;-76
2023/03/02 11:24:37;;;;;;;19.30;12.40;;;;;;;4.06;76.60;101321.09;108800;1256;37238;-75
2023/03/02 11:27:14;;;;;;;21.40;12.70;;;;;;;4.07;76.50;101322.30;108755;1255;36569;-77
2023/03/02 11:29:50;;;;;;;20.90;12.50;;;;;;;4.02;75.84;101321.23;108745;1257;36999;-74
2023/03/02 11:32:29;;;;;;;17.10;11.60;;;;;;;3.93;75.64;101317.05;108796;1256;37014;-76
2023/03/02 11:35:05;;;;;;;17.40;12.00;;;;;;;3.87;76.10;101316.86;108683;1253;172895;-76
2023/03/02 11:37:42;;;;;;;14.60;10.70;;;;;;;3.84;75.80;101310.81;108681;1257;37600;-76
2023/03/02 11:40:25;;;;;;;20.90;11.00;;;;;;;3.79;76.10;101310.95;108817;1255;38368;-74
2023/03/02 11:43:03;;;;;;;15.80;11.70;;;;;;;3.77;75.98;101315.61;108777;1275;37028;-76
2023/03/02 11:45:46;;;;;;;17.10;11.10;;;;;;;3.73;75.85;101320.94;108728;1257;37225;-77